Monatstabelle

Bitte in den Auwahlmenüs den gewünschte Zeiraum wählen und die Schaltfläche "Anfrage absenden" betätigen. Beginn der Aufzeichnung ist 2007 - Dezember. Vor diesem Zeitraum sind keine Daten verfügbar.

2019 - März

 

Datum Temperatur (°C) Luftdruck (hPa) Luftfeuchte (%) Regen
(l/m²)
Wind (km/h)
avg: min: max: avg: min: max: avg: min: max: avg: max:
01.03.2019 10,1 8,3 14,8 1010,3 1008,8 1011,4 64 50 71 0,0 6,5 19,3
02.03.2019 4,1 2,5 9,5 1015,0 1010,8 1015,6 89 69 90 11,8 1,9 15,8
03.03.2019 8,0 3,2 16,8 1012,2 1008,3 1016,4 75 49 90 0,1 1,7 9,8
04.03.2019 11,2 6,6 19,5 1001,8 998,1 1008,7 52 37 78 0,0 9,1 20,8
05.03.2019 8,3 5,4 14,9 1010,0 1002,4 1012,8 50 32 68 0,0 6,3 16,6
06.03.2019 9,8 2,7 14,5 1010,3 1005,0 1016,6 64 47 81 0,0 10,8 19,5
07.03.2019 12,8 7,3 20,6 1006,1 1002,5 1009,9 58 43 66 0,0 7,1 18,5
08.03.2019 9,5 6,9 12,9 1015,2 1009,9 1018,1 64 54 77 0,0 1,7 9,5
09.03.2019 9,2 3,4 15,5 1014,4 1011,8 1018,4 67 46 81 0,1 5,8 16,3
10.03.2019 12,3 9,0 16,4 1008,4 1003,9 1013,8 61 46 68 0,0 6,8 23,2
11.03.2019 5,5 3,9 12,1 1014,8 1008,1 1016,4 55 41 65 0,0 12,6 20,3
12.03.2019 4,9 1,8 9,7 1018,0 1013,1 1022,1 60 43 73 0,0 9,3 25,4
13.03.2019 5,6 3,1 9,9 1010,6 1007,8 1013,1 70 46 80 0,8 3,8 16,9
14.03.2019 6,8 1,1 12,3 1005,7 1001,8 1010,9 66 44 82 0,0 3,0 14,6
15.03.2019 8,9 4,4 12,1 1006,1 1001,8 1008,9 69 49 81 0,8 7,3 22,9
16.03.2019 7,8 4,8 13,5 1010,0 1003,6 1011,9 87 61 89 1,6 3,4 23,7
17.03.2019 13,1 2,5 22,2 1005,1 1002,0 1009,4 62 39 89 0,0 5,8 18,0
18.03.2019 5,8 2,0 11,2 1016,5 1007,2 1019,7 60 48 72 0,0 4,8 16,7
19.03.2019 4,4 0,4 9,3 1023,9 1019,4 1026,8 70 53 79 0,0 3,6 15,0
20.03.2019 2,6 -2,0 9,4 1031,1 1026,8 1032,2 69 47 85 0,0 4,0 17,2
21.03.2019 4,2 -2,5 14,5 1031,0 1029,4 1034,4 63 39 83 0,0 4,2 12,6
22.03.2019 8,3 -0,4 19,6 1028,0 1026,4 1030,9 65 36 81 0,0 0,3 9,8
23.03.2019 10,1 2,0 21,1 1024,1 1021,9 1026,8 71 46 89 0,0 1,6 7,6
24.03.2019 11,0 4,8 21,3 1017,9 1015,6 1022,6 72 47 85 0,0 0,3 12,4
25.03.2019 8,0 5,4 13,8 1014,2 1011,0 1017,7 60 46 83 0,0 11,3 25,4
26.03.2019 6,7 3,9 11,7 1022,2 1017,7 1023,1 55 40 73 0,0 12,9 23,5
27.03.2019 4,4 0,9 8,7 1027,0 1022,4 1028,5 71 53 82 0,0 6,8 16,9
28.03.2019 9,3 1,0 14,0 1027,9 1026,6 1029,5 67 50 83 0,0 6,3 15,0
30.03.2019 10,2 2,5 21,3 1020,9 1018,0 1025,0 60 33 89 0,1 2,4 9,5
31.03.2019 10,8 2,8 21,0 1017,2 1015,6 1019,1 60 37 84 0,0 3,4 15,6
avg. 8,1 1015,9 65   ---
  Summe Regen: 15,5  
 
Min-Datum 21.03.2019 04.03.2019 05.03.2019 --- ---
Min-Zeit 05:24 15:48 15:46 --- ---
Minimum -2,5 998,1 32 --- ---
 

Max-Datum

17.03.2019 21.03.2019 02.03.2019 02.03.2019 12.03.2019
Max-Zeit 14:30 09:30 22:40 04:16 13:36
Maximum 22,2 1034,4 90 11,8 25,4
 

 

  Letztes Jahr
gleiches Monat
Eistage max < 0°C 0 4
Frosttage min < 0°C 3 16
Sommertage max >=25°C 0 0
Heiße Tage max >=30°C 0 0

 

<<< nach oben >>>